Timeline UpdatesTrip UpdatesNews PostsPvt PostsTravel TipsAdmin PostsConv PostsFollowed PostsChat RequestsBlog PostsPNR Posts

Disclaimer
Search
 
 
Wed Jul 30, 2014 12:32:46 ISTHomeTrainsΣChainsAtlasPNRForumGalleryNewsFAQTripsMembersLoginFeedback
No Recent News for this Train
Other Trains in the News **new
Latest...
Runs combined with 11015 Kushinagar Express from Bhopal
Sun Nov 24, 2013 (02:42PM)
⇐ Return Journey: n/a

11015-Slip⇒59386-Slip2/Panchvalley Passenger Slip2

Mar 09 2014 (4:34PM)
Change Departure Station:
Change Arrival Station:
Post a Train Travel TipPost a Train Travel Tip **new
Post a Comment/Question/Picture/VideoPost a Comment/Question/Picture/Video
Pantry/Catering
???
RSA - Rake Sharing
11015 kushinagar express.
Rake/Coach Composition
Sleeper-1 (S-15)
Loco
WDM 3A
News    PNR    Forum    Time-Table    Availability    Fare Chart    Map    Arr/Dep History    Trips    Gallery    ΣChains    X/O    Timeline    
Travel Time: 23h 0m    22 halts    Distance: 860 km    Avg Speed: 37 km/hr
Type: Passenger
Zone: SECR/South East Central
Departs @ 08:10
Platform# ???
SMTWTFS
Bhopal HabibGanj/HBJ 
Arrives @ 07:10 +1 night
Platform# ???
SMTWTFS
Gorakhpur Junction/GKP 

22 halts. 125 intermediate Stations between Bhopal HabibGanj and Gorakhpur Junction

Show ALL intermediate Stations  Show Old Time-Table

#CodeStation NameX/OArrivesAvgDepartsAvgHaltPFDay#KmSpeedElevZoneAddress
1CWAChhindwara Junction (3)  -21:05---1-329.638675mSECRNH 69A Seoni Road, Madhya Pradesh
2GNWGangiwara (1)  21:26-21:27-1m--1-316.223714mCRChhindwara, Madhya Pradesh
3KUXKhirsadoh Junction (2)  21:47-21:48-1m--1-308.675769mCRChhindwara, Madhya Pradesh
4PUXParasia (2)  21:54-21:56-2m--1-301.138775mCRDongar Parasia, Madhya Pradesh
5IKRIklehra (1)  22:06-22:07-1m11-294.930771mCRDongar Parasia, Madhya Pradesh
6PCLIPalachauri (1)  22:16-22:17-1m11-290.444787mCRDongar Parasia, Madhya Pradesh
7JNOJunnor Deo (2)  22:28-22:29-1m--1-282.343762mCRDongar Parasia, Madhya Pradesh
8HRGHirdagarh (2)  22:43-22:44-1m--1-272.241721mCRDongar Parasia, Madhya Pradesh
9MKDNMorkadhana (1)  22:52-22:53-1m11-266.751747mCRNayagaon, Madhya Pradesh
10NVGNavegaon (1)  23:04-23:05-1m11-257.344794mCRNayagaon, Madhya Pradesh
11BQMBarelipur (1)  23:14-23:15-1m11-250.762744mCRNayagaon, Madhya Pradesh
12BXYBordhal (1)  23:24-23:25-1m11-241.456710mCRAmla, Madhya Pradesh
13BCRDBarchi Road (1)  23:32-23:33-1m11-234.950713mCRState Highway 26, Madhya Pradesh
14JMVJambara (1)  23:41-23:42-1m11-228.319706mCRAmla, Madhya Pradesh
15AMLAAmla Junction (5)XO  00:25-00:40-15m--2-214.665733mCRAmla Distt. Betul, Madhya Pradesh
16BYSBarsali (2)  00:49-00:50-1m--2-204.844699mCRAmla, Madhya Pradesh
17MALKMalkapur Road (1)XO  00:59-01:00-1m12-198.243668mCRBetul, Madhya Pradesh
18BZUBetul (3)XO  01:09-01:10-1m--2-191.737644mCRBetul, Madhya Pradesh
19MJYMaramjhiri (2)O  01:23-01:24-1m--2-183.752642mCRBetul, Madhya Pradesh
20GDYAGhoradongri (3)X  01:56-01:57-1m--2-155.858410mCRBetul, Madhya Pradesh
21BBTRBarbatpur (3)X  02:09-02:10-1m--2-144.235394mCRBetul, Madhya Pradesh
22DOHDhodramohar (2)  02:29-02:30-1m--2-133.230376mCRBetul, Madhya Pradesh
23KQEKala Akhar (2)X  02:59-03:00-1m--2-118.516376mCRItarsi, Madhya Pradesh
24TAKUTaku (2)XO  03:39-03:40-1m--2-107.918390mCRItarsi, Madhya Pradesh
25KRTHKiratgarh (2)XO  04:19-04:20-1m--2-96.29369mCRItarsi, Madhya Pradesh
26ETItarsi Junction (7)O  05:35-05:45-10m--2-85.545329mWCRItarsi 461111, Madhya Pradesh
27PRKDPowerkheda  05:56-05:57-1m--2-77.254316mWCRItarsi, Madhya Pradesh
28HBDHoshangabad (2)X  06:08-06:09-1m--2-67.438308mWCRHoshangabad, Madhya Pradesh
29BNIBudni (2)X  06:20-06:21-1m--2-60.432311mWCRSehore 466445 Madhya pradesh, Madhya Pradesh
30BKABarkheraX  06:57-06:58-1m--2-41.062472mWCRBarkhera, Madhya Pradesh
31ODGObaidulla Ganj  07:09-07:10-1m22-29.6101450mWCRObaidullaganj Raisen Dist., Madhya Pradesh
32MDDPMandi Dip (1)X  07:18-07:19-1m12-16.160449mWCRMandideep, Madhya Pradesh
33MSOMisrod (2)XO  07:29-07:30-1m12-6.210468mWCRBhopal, Madhya Pradesh
34HBJ»Bhopal HabibGanj (5)»XO  08:08-08:10-2m--20.011496mWCRHabibGanj, Madhya Pradesh
35BPLBhopal Junction (6)XO  08:45-14:00-315m226.382497mWCRBhopal, Madhya Pradesh
36BHSVidisha (3)  14:39-14:40-1m1259.881432mWCRVidisha, Madhya Pradesh
37BAQGanj Basoda (4)  15:09-15:10-1m1299.130416mWCRVidisha, Madhya Pradesh
38BINABina Junction (4)  16:40-16:45-5m22144.871414mWCRJn Pt - KATNI/GUNA/ BPL/JHS, Madhya Pradesh
39LARLalitpur (3)  17:38-17:39-1m32207.788373mNCRLalitpur, Uttar Pradesh
40BABBabina (3)X  18:23-18:24-1m22272.537285mNCRBabina, Uttar Pradesh
41JHSJhansi Junction (7)XO  19:05-19:20-15m--2298.156259mNCRJhansi, Uttar Pradesh
42CGNChirgaon  19:54-19:55-1m--2329.877192mNCRChirgaon, Uttar Pradesh
43AITAit Junction (2)X  20:40-20:41-1m--2387.453154mNCROrai(05162-252206), Uttar Pradesh
44ORAIOrai (3)XO  21:09-21:10-1m--2412.058139mNCROrai(05162-252206), Uttar Pradesh
45KPIKalpi  21:44-21:45-1m--2444.848114mNCRKalpi Orai(05162-252206), Uttar Pradesh
46PHNPokhrayan (2)X  22:04-22:05-1m--2459.829133mNCRPukhrayan, Uttar Pradesh
47BZMBhimsen (1)  23:36-23:37-1m--2504.226136mNCRKanpur, Uttar Pradesh
48CNBKanpur Central (10)X  00:10-00:20-10m73518.347128mNCRKANPUR-208 001, Uttar Pradesh
49ONUnnao Junction (5)X  00:42-00:43-1m--3535.753129mNRUnnao, Uttar Pradesh
50LKOLucknow Charbagh (9)X  01:45-01:55-10m63590.340123mNR226004, Uttar Pradesh
51BBKBarabanki Junction (4)X  02:38-02:40-2m--3618.963122mNRPin-225001, Uttar Pradesh
52GDGonda Junction (3)X  04:05-04:10-5m--3708.260110mNERGonda 271001, Uttar Pradesh
53MURMankapur Junction (5)  04:38-04:40-2m--3736.174104mNERDistrict Gonda, Uttar Pradesh
54BVBabhnan (2)X  05:04-05:05-1m--3765.862101mNERDistrict- Basti, Uttar Pradesh
55BSTBasti (4)X  05:35-05:40-5m--3796.67790mNERBasti 272001, Uttar Pradesh
56KLDKhalilabad (3)X  06:03-06:04-1m--3826.13186mNERKhalilabad- 272175, Uttar Pradesh
57GKP•Gorakhpur Junction (10)•  07:10----3860.0-84mNERGorakhpur 273001, Uttar Pradesh
Scroll to Top
Scroll to Bottom